createdAt,value
2016-03-13T00:00:12.461Z,1029.8
2016-03-13T00:01:12.764Z,1029.78
2016-03-13T00:02:11.845Z,1029.84
2016-03-13T00:03:11.847Z,1029.8
2016-03-13T00:04:11.835Z,1029.79
2016-03-13T00:05:11.821Z,1029.84
2016-03-13T00:06:11.809Z,1029.84
2016-03-13T00:07:11.812Z,1029.79
2016-03-13T00:08:11.782Z,1029.84
2016-03-13T00:09:11.771Z,1029.76
2016-03-13T00:10:13.241Z,1029.8
2016-03-13T00:11:11.979Z,1029.77
2016-03-13T00:12:12.591Z,1029.77
2016-03-13T00:13:11.735Z,1029.79
2016-03-13T00:14:12.674Z,1029.76
2016-03-13T00:16:11.695Z,1029.77
2016-03-13T00:17:11.682Z,1029.78
2016-03-13T00:18:11.685Z,1029.79
2016-03-13T00:19:11.673Z,1029.79
2016-03-13T00:20:11.659Z,1029.79
2016-03-13T00:21:11.646Z,1029.84
2016-03-13T00:22:11.633Z,1029.78
2016-03-13T00:23:11.620Z,1029.81
2016-03-13T00:25:12.344Z,1029.81
2016-03-13T00:26:11.581Z,1029.83
2016-03-13T00:27:11.569Z,1029.82
2016-03-13T00:28:11.571Z,1029.84
2016-03-13T00:29:11.855Z,1029.86
2016-03-13T00:30:11.545Z,1029.78
2016-03-13T00:31:11.533Z,1029.81
2016-03-13T00:32:11.520Z,1029.83
2016-03-13T00:33:11.507Z,1029.83
2016-03-13T00:34:11.494Z,1029.91
2016-03-13T00:35:11.480Z,1029.87
2016-03-13T00:36:11.468Z,1029.86
2016-03-13T00:37:11.470Z,1029.85
2016-03-13T00:38:11.442Z,1029.86
2016-03-13T00:39:11.434Z,1029.85
2016-03-13T00:40:11.421Z,1029.86
2016-03-13T00:41:11.424Z,1029.88
2016-03-13T00:42:11.395Z,1029.89
2016-03-13T00:43:11.398Z,1029.92
2016-03-13T00:44:11.385Z,1029.9
2016-03-13T00:45:11.372Z,1029.92
2016-03-13T00:46:11.359Z,1029.94
2016-03-13T00:47:11.345Z,1029.94
2016-03-13T00:48:11.334Z,1029.93
2016-03-13T00:49:11.320Z,1029.95
2016-03-13T00:50:11.307Z,1029.97
2016-03-13T00:51:11.295Z,1029.95
2016-03-13T00:52:11.281Z,1029.92
2016-03-13T00:53:11.269Z,1029.96
2016-03-13T00:54:11.271Z,1029.9
2016-03-13T00:55:11.258Z,1029.88
2016-03-13T00:56:11.245Z,1029.9
2016-03-13T00:57:11.232Z,1029.89
2016-03-13T00:58:11.219Z,1029.86
2016-03-13T00:59:11.206Z,1029.91
2016-03-13T01:00:11.194Z,1029.87
2016-03-13T01:01:11.181Z,1029.88
2016-03-13T01:02:11.168Z,1029.88
2016-03-13T01:03:11.155Z,1029.88
2016-03-13T01:04:11.141Z,1029.91
2016-03-13T01:05:11.129Z,1029.84
2016-03-13T01:06:11.115Z,1029.88
2016-03-13T01:07:11.103Z,1029.85
2016-03-13T01:08:11.105Z,1029.9
2016-03-13T01:09:11.077Z,1029.88
2016-03-13T01:10:11.080Z,1029.84
2016-03-13T01:11:11.068Z,1029.82
2016-03-13T01:12:11.054Z,1029.88
2016-03-13T01:13:11.040Z,1029.84
2016-03-13T01:14:11.028Z,1029.86
2016-03-13T01:15:11.015Z,1029.91
2016-03-13T01:16:11.001Z,1029.91
2016-03-13T01:17:10.989Z,1029.87
2016-03-13T01:18:11.212Z,1029.94
2016-03-13T01:19:10.964Z,1029.91
2016-03-13T01:20:10.967Z,1029.9
2016-03-13T01:21:10.953Z,1029.82
2016-03-13T01:22:11.722Z,1029.89
2016-03-13T01:23:10.927Z,1029.87
2016-03-13T01:24:10.914Z,1029.89
2016-03-13T01:25:10.900Z,1029.83
2016-03-13T01:26:10.889Z,1029.84
2016-03-13T01:27:10.875Z,1029.85
2016-03-13T01:28:10.863Z,1029.83
2016-03-13T01:29:10.850Z,1029.81
2016-03-13T01:30:10.836Z,1029.85
2016-03-13T01:31:10.824Z,1029.83
2016-03-13T01:32:10.811Z,1029.84
2016-03-13T01:33:10.797Z,1029.86
2016-03-13T01:34:10.785Z,1029.83
2016-03-13T01:35:10.771Z,1029.81
2016-03-13T01:36:10.759Z,1029.78
2016-03-13T01:37:10.747Z,1029.81
2016-03-13T01:38:11.390Z,1029.81
2016-03-13T01:39:10.721Z,1029.81
2016-03-13T01:40:10.707Z,1029.81
2016-03-13T01:41:10.694Z,1029.81
2016-03-13T01:43:10.668Z,1029.83
2016-03-13T01:44:10.671Z,1029.83
2016-03-13T01:45:10.659Z,1029.85
2016-03-13T01:46:10.646Z,1029.82
2016-03-13T01:47:10.617Z,1029.86
2016-03-13T01:48:10.620Z,1029.87
2016-03-13T01:49:10.607Z,1029.9
2016-03-13T01:50:10.593Z,1029.88
2016-03-13T01:51:10.581Z,1029.91
2016-03-13T01:52:10.567Z,1029.85
2016-03-13T01:53:10.555Z,1029.87
2016-03-13T01:54:10.542Z,1029.89
2016-03-13T01:55:10.528Z,1029.91
2016-03-13T01:56:10.517Z,1029.93
2016-03-13T01:57:10.503Z,1029.9
2016-03-13T01:58:10.490Z,1029.93
2016-03-13T01:59:10.477Z,1029.93
2016-03-13T02:00:10.464Z,1029.98
2016-03-13T02:01:10.452Z,1029.99
2016-03-13T02:02:10.438Z,1029.99
2016-03-13T02:03:10.425Z,1030.06
2016-03-13T02:04:10.413Z,1030.01
2016-03-13T02:05:10.416Z,1030.01
2016-03-13T02:06:10.402Z,1030.04
2016-03-13T02:07:10.389Z,1030.06
2016-03-13T02:08:10.377Z,1030.05
2016-03-13T02:09:10.363Z,1030.08
2016-03-13T02:10:10.351Z,1030.06
2016-03-13T02:11:10.338Z,1030.13
2016-03-13T02:12:10.324Z,1030.09
2016-03-13T02:13:10.312Z,1030.12
2016-03-13T02:14:10.298Z,1030.14
2016-03-13T02:15:10.286Z,1030.15
2016-03-13T02:16:10.273Z,1030.16
2016-03-13T02:17:10.260Z,1030.18
2016-03-13T02:18:10.248Z,1030.16
2016-03-13T02:19:10.250Z,1030.18
2016-03-13T02:20:10.237Z,1030.16
2016-03-13T02:21:10.224Z,1030.16
2016-03-13T02:22:10.211Z,1030.17
2016-03-13T02:23:10.198Z,1030.11
2016-03-13T02:24:10.184Z,1030.14
2016-03-13T02:25:10.172Z,1030.17
2016-03-13T02:26:10.159Z,1030.14
2016-03-13T02:27:10.147Z,1030.14
2016-03-13T02:28:10.150Z,1030.11
2016-03-13T02:29:10.120Z,1030.15
2016-03-13T02:30:10.123Z,1030.14
2016-03-13T02:31:10.110Z,1030.11
2016-03-13T02:32:10.097Z,1030.1
2016-03-13T02:33:10.083Z,1030.06
2016-03-13T02:34:10.072Z,1030.09
2016-03-13T02:35:10.059Z,1030.08
2016-03-13T02:36:11.326Z,1030.06
2016-03-13T02:37:10.049Z,1030.07
2016-03-13T02:38:10.020Z,1030.05
2016-03-13T02:39:10.007Z,1030.04
2016-03-13T02:40:10.010Z,1030.08
2016-03-13T02:41:09.980Z,1030.04
2016-03-13T02:42:10.390Z,1030.06
2016-03-13T02:43:09.971Z,1030.11
2016-03-13T02:44:09.958Z,1030.08
2016-03-13T02:45:09.945Z,1030.08
2016-03-13T02:46:09.994Z,1030.1
2016-03-13T02:47:10.496Z,1030.09
2016-03-13T02:48:09.937Z,1030.08
2016-03-13T02:49:09.909Z,1030.1
2016-03-13T02:50:09.895Z,1030.12
2016-03-13T02:51:10.461Z,1030.12
2016-03-13T02:52:10.682Z,1030.12
2016-03-13T02:53:09.856Z,1030.11
2016-03-13T02:54:09.844Z,1030.1
2016-03-13T02:55:09.831Z,1030.12
2016-03-13T02:56:10.475Z,1030.11
2016-03-13T02:57:09.837Z,1030.08
2016-03-13T02:58:09.808Z,1030.13
2016-03-13T02:59:09.779Z,1030.12
2016-03-13T03:00:09.782Z,1030.12
2016-03-13T03:01:09.770Z,1030.1
2016-03-13T03:02:09.756Z,1030.07
2016-03-13T03:04:09.731Z,1030.08
2016-03-13T03:05:10.139Z,1030.06
2016-03-13T03:06:10.002Z,1030.07
2016-03-13T03:07:09.707Z,1030.08
2016-03-13T03:08:09.694Z,1030.09
2016-03-13T03:09:09.681Z,1030.11
2016-03-13T03:10:09.668Z,1030.11
2016-03-13T03:11:09.655Z,1030.11
2016-03-13T03:12:09.643Z,1030.07
2016-03-13T03:13:09.645Z,1030.09
2016-03-13T03:14:09.632Z,1030.1
2016-03-13T03:15:09.619Z,1030.1
2016-03-13T03:16:09.606Z,1030.11
2016-03-13T03:17:09.593Z,1030.09
2016-03-13T03:18:09.579Z,1030.11
2016-03-13T03:19:09.567Z,1030.12
2016-03-13T03:20:09.570Z,1030.12
2016-03-13T03:21:09.542Z,1030.12
2016-03-13T03:22:09.544Z,1030.13
2016-03-13T03:23:09.531Z,1030.1
2016-03-13T03:24:09.518Z,1030.12
2016-03-13T03:25:09.505Z,1030.14
2016-03-13T03:26:09.492Z,1030.15
2016-03-13T03:27:09.479Z,1030.18
2016-03-13T03:28:09.466Z,1030.2
2016-03-13T03:29:09.454Z,1030.17
2016-03-13T03:30:09.441Z,1030.17
2016-03-13T03:31:09.444Z,1030.18
2016-03-13T03:32:09.415Z,1030.22
2016-03-13T03:33:09.417Z,1030.21
2016-03-13T03:34:09.405Z,1030.21
2016-03-13T03:35:09.392Z,1030.22
2016-03-13T03:36:09.378Z,1030.21
2016-03-13T03:37:09.366Z,1030.25
2016-03-13T03:38:09.369Z,1030.26
2016-03-13T03:39:09.341Z,1030.22
2016-03-13T03:40:09.343Z,1030.28
2016-03-13T03:41:09.330Z,1030.29
2016-03-13T03:42:09.314Z,1030.29
2016-03-13T03:43:09.301Z,1030.3
2016-03-13T03:44:09.288Z,1030.31
2016-03-13T03:45:09.275Z,1030.31
2016-03-13T03:46:09.262Z,1030.34
2016-03-13T03:47:09.265Z,1030.34
2016-03-13T03:48:09.252Z,1030.38
2016-03-13T03:49:09.239Z,1030.4
2016-03-13T03:50:09.242Z,1030.41
2016-03-13T03:51:09.213Z,1030.42
2016-03-13T03:52:09.200Z,1030.46
2016-03-13T03:53:09.203Z,1030.45
2016-03-13T03:54:09.189Z,1030.49
2016-03-13T03:55:09.176Z,1030.49
2016-03-13T03:56:09.792Z,1030.45
2016-03-13T03:57:09.151Z,1030.46
2016-03-13T03:58:09.309Z,1030.49
2016-03-13T03:59:09.125Z,1030.5
2016-03-13T04:00:09.112Z,1030.5
2016-03-13T04:01:09.099Z,1030.49
2016-03-13T04:02:09.086Z,1030.5
2016-03-13T04:03:09.089Z,1030.54
2016-03-13T04:04:09.061Z,1030.56
2016-03-13T04:05:09.064Z,1030.54
2016-03-13T04:06:09.050Z,1030.57
2016-03-13T04:07:09.303Z,1030.58
2016-03-13T04:08:09.025Z,1030.59
2016-03-13T04:09:09.530Z,1030.6
2016-03-13T04:10:08.999Z,1030.58
2016-03-13T04:11:08.986Z,1030.59
2016-03-13T04:12:09.191Z,1030.62
2016-03-13T04:13:08.960Z,1030.59
2016-03-13T04:14:08.963Z,1030.57
2016-03-13T04:15:08.949Z,1030.6
2016-03-13T04:16:08.937Z,1030.61
2016-03-13T04:17:08.924Z,1030.61
2016-03-13T04:18:08.910Z,1030.59
2016-03-13T04:19:08.898Z,1030.58
2016-03-13T04:21:08.871Z,1030.63
2016-03-13T04:22:08.859Z,1030.59
2016-03-13T04:23:08.862Z,1030.62
2016-03-13T04:24:08.848Z,1030.62
2016-03-13T04:25:08.836Z,1030.6
2016-03-13T04:26:08.823Z,1030.55
2016-03-13T04:27:08.809Z,1030.57
2016-03-13T04:28:08.813Z,1030.61
2016-03-13T04:29:08.784Z,1030.68
2016-03-13T04:30:08.787Z,1030.71
2016-03-13T04:31:08.774Z,1030.64
2016-03-13T04:32:08.761Z,1030.64
2016-03-13T04:33:08.748Z,1030.68
2016-03-13T04:34:08.736Z,1030.67
2016-03-13T04:35:08.723Z,1030.65
2016-03-13T04:36:08.709Z,1030.69
2016-03-13T04:37:08.712Z,1030.66
2016-03-13T04:38:08.684Z,1030.65
2016-03-13T04:39:08.686Z,1030.61
2016-03-13T04:40:08.673Z,1030.64
2016-03-13T04:41:08.660Z,1030.61
2016-03-13T04:42:08.647Z,1030.62
2016-03-13T04:43:08.635Z,1030.67
2016-03-13T04:44:08.621Z,1030.66
2016-03-13T04:45:08.608Z,1030.66
2016-03-13T04:46:08.596Z,1030.66
2016-03-13T04:47:08.598Z,1030.68
2016-03-13T04:48:08.585Z,1030.67
2016-03-13T04:49:08.572Z,1030.65
2016-03-13T04:50:08.559Z,1030.65
2016-03-13T04:51:08.546Z,1030.69
2016-03-13T04:52:08.533Z,1030.66
2016-03-13T04:53:08.520Z,1030.65
2016-03-13T04:54:08.507Z,1030.65
2016-03-13T04:55:08.495Z,1030.62
2016-03-13T04:56:08.497Z,1030.63
2016-03-13T04:57:08.484Z,1030.66
2016-03-13T04:58:08.471Z,1030.65
2016-03-13T04:59:08.458Z,1030.63
2016-03-13T05:00:08.445Z,1030.67
2016-03-13T05:01:08.433Z,1030.67
2016-03-13T05:02:08.436Z,1030.71
2016-03-13T05:03:08.407Z,1030.7
2016-03-13T05:04:08.409Z,1030.68
2016-03-13T05:05:08.397Z,1030.72
2016-03-13T05:06:08.384Z,1030.71
2016-03-13T05:07:08.370Z,1030.7
2016-03-13T05:08:08.358Z,1030.79
2016-03-13T05:09:08.345Z,1030.72
2016-03-13T05:10:08.332Z,1030.71
2016-03-13T05:11:08.319Z,1030.72
2016-03-13T05:12:08.306Z,1030.72
2016-03-13T05:13:08.293Z,1030.75
2016-03-13T05:14:09.108Z,1030.76
2016-03-13T05:15:08.283Z,1030.76
2016-03-13T05:16:08.269Z,1030.75
2016-03-13T05:17:08.257Z,1030.79
2016-03-13T05:18:08.713Z,1030.77
2016-03-13T05:19:08.277Z,1030.78
2016-03-13T05:20:08.234Z,1030.76
2016-03-13T05:21:08.221Z,1030.77
2016-03-13T05:22:08.395Z,1030.79
2016-03-13T05:23:08.195Z,1030.79
2016-03-13T05:24:08.182Z,1030.81
2016-03-13T05:25:08.168Z,1030.8
2016-03-13T05:26:08.156Z,1030.82
2016-03-13T05:27:08.142Z,1030.81
2016-03-13T05:28:08.130Z,1030.82
2016-03-13T05:29:08.117Z,1030.81
2016-03-13T05:30:08.166Z,1030.85
2016-03-13T05:32:08.094Z,1030.95
2016-03-13T05:33:08.081Z,1030.96
2016-03-13T05:35:08.055Z,1030.9
2016-03-13T05:36:08.042Z,1030.94
2016-03-13T05:37:08.030Z,1030.94
2016-03-13T05:38:08.033Z,1030.93
2016-03-13T05:39:08.019Z,1030.94
2016-03-13T05:40:08.756Z,1030.96
2016-03-13T05:41:08.291Z,1030.98
2016-03-13T05:42:07.980Z,1030.99
2016-03-13T05:43:08.124Z,1031
2016-03-13T05:44:08.252Z,1031.05
2016-03-13T05:45:07.941Z,1031.02
2016-03-13T05:46:07.929Z,1031.05
2016-03-13T05:47:07.917Z,1031.06
2016-03-13T05:48:07.903Z,1031.04
2016-03-13T05:49:07.909Z,1031.11
2016-03-13T05:50:07.880Z,1031.06
2016-03-13T05:51:07.883Z,1031.11
2016-03-13T05:52:07.870Z,1031.1
2016-03-13T05:53:07.841Z,1031.12
2016-03-13T05:54:07.844Z,1031.22
2016-03-13T05:55:07.832Z,1031.23
2016-03-13T05:56:07.819Z,1031.21
2016-03-13T05:57:07.805Z,1031.3
2016-03-13T05:58:07.793Z,1031.21
2016-03-13T05:59:07.785Z,1031.24
2016-03-13T06:00:07.771Z,1031.25
2016-03-13T06:01:07.759Z,1031.26
2016-03-13T06:02:07.746Z,1031.33
2016-03-13T06:03:07.732Z,1031.24
2016-03-13T06:04:07.735Z,1031.31
2016-03-13T06:05:07.723Z,1031.3
2016-03-13T06:06:07.709Z,1031.33
2016-03-13T06:07:07.694Z,1031.35
2016-03-13T06:08:07.681Z,1031.39
2016-03-13T06:09:07.684Z,1031.35
2016-03-13T06:10:07.656Z,1031.38
2016-03-13T06:11:07.658Z,1031.42
2016-03-13T06:12:07.645Z,1031.4
2016-03-13T06:13:07.632Z,1031.45
2016-03-13T06:14:07.620Z,1031.45
2016-03-13T06:15:07.606Z,1031.45
2016-03-13T06:16:07.594Z,1031.44
2016-03-13T06:17:07.581Z,1031.43
2016-03-13T06:18:07.583Z,1031.47
2016-03-13T06:19:07.570Z,1031.42
2016-03-13T06:20:07.558Z,1031.4
2016-03-13T06:21:07.544Z,1031.43
2016-03-13T06:22:07.531Z,1031.46
2016-03-13T06:23:07.518Z,1031.45
2016-03-13T06:24:07.521Z,1031.43
2016-03-13T06:25:07.508Z,1031.48
2016-03-13T06:26:07.495Z,1031.53
2016-03-13T06:27:07.482Z,1031.49
2016-03-13T06:28:07.469Z,1031.53
2016-03-13T06:29:07.456Z,1031.56
2016-03-13T06:30:07.443Z,1031.51
2016-03-13T06:31:07.430Z,1031.57
2016-03-13T06:32:07.432Z,1031.55
2016-03-13T06:33:07.420Z,1031.6
2016-03-13T06:34:07.407Z,1031.59
2016-03-13T06:35:07.394Z,1031.62
2016-03-13T06:36:07.693Z,1031.68
2016-03-13T06:37:07.384Z,1031.59
2016-03-13T06:38:07.370Z,1031.62
2016-03-13T06:39:07.358Z,1031.61
2016-03-13T06:40:07.345Z,1031.62
2016-03-13T06:41:07.331Z,1031.7
2016-03-13T06:42:07.320Z,1031.65
2016-03-13T06:43:08.884Z,1031.68
2016-03-13T06:44:07.294Z,1031.7
2016-03-13T06:45:07.281Z,1031.74
2016-03-13T06:46:07.283Z,1031.73
2016-03-13T06:47:08.098Z,1031.77
2016-03-13T06:48:07.258Z,1031.71
2016-03-13T06:49:07.244Z,1031.77
2016-03-13T06:50:07.247Z,1031.83
2016-03-13T06:51:07.218Z,1031.81
2016-03-13T06:52:07.221Z,1031.73
2016-03-13T06:53:07.208Z,1031.73
2016-03-13T06:54:07.211Z,1031.77
2016-03-13T06:55:07.198Z,1031.78
2016-03-13T06:56:07.169Z,1031.78
2016-03-13T06:57:07.172Z,1031.81
2016-03-13T06:58:07.159Z,1031.82
2016-03-13T06:59:07.146Z,1031.81
2016-03-13T07:00:07.133Z,1031.85
2016-03-13T07:01:07.121Z,1031.83
2016-03-13T07:02:07.124Z,1031.83
2016-03-13T07:03:07.110Z,1031.84
2016-03-13T07:04:07.394Z,1031.84
2016-03-13T07:05:07.085Z,1031.84
2016-03-13T07:06:07.228Z,1031.84
2016-03-13T07:07:07.059Z,1031.85
2016-03-13T07:08:07.046Z,1031.88
2016-03-13T07:09:07.048Z,1031.86
2016-03-13T07:10:07.035Z,1031.91
2016-03-13T07:11:07.022Z,1031.92
2016-03-13T07:12:07.009Z,1031.88
2016-03-13T07:13:07.012Z,1031.96
2016-03-13T07:14:06.984Z,1031.94
2016-03-13T07:15:06.986Z,1032
2016-03-13T07:16:06.973Z,1031.96
2016-03-13T07:17:06.961Z,1031.93
2016-03-13T07:18:06.947Z,1031.95
2016-03-13T07:19:06.950Z,1031.96
2016-03-13T07:20:06.936Z,1031.98
2016-03-13T07:21:06.939Z,1032.02
2016-03-13T07:22:06.911Z,1031.99
2016-03-13T07:23:06.898Z,1032.03
2016-03-13T07:24:06.901Z,1032.06
2016-03-13T07:25:06.872Z,1032.05
2016-03-13T07:26:06.874Z,1032.05
2016-03-13T07:27:06.863Z,1032.1
2016-03-13T07:28:06.849Z,1032.08
2016-03-13T07:29:06.836Z,1032.04
2016-03-13T07:30:06.839Z,1031.99
2016-03-13T07:31:06.826Z,1032
2016-03-13T07:32:06.813Z,1032.05
2016-03-13T07:33:06.801Z,1032.11
2016-03-13T07:34:06.788Z,1032.11
2016-03-13T07:35:06.790Z,1032.12
2016-03-13T07:36:06.777Z,1032.12
2016-03-13T07:37:06.764Z,1032.09
2016-03-13T07:38:06.751Z,1032.1
2016-03-13T07:39:06.738Z,1032.09
2016-03-13T07:40:06.725Z,1032.09
2016-03-13T07:41:06.728Z,1032.13
2016-03-13T07:42:06.715Z,1032.14
2016-03-13T07:43:06.702Z,1032.12
2016-03-13T07:44:06.689Z,1032.18
2016-03-13T07:45:06.691Z,1032.23
2016-03-13T07:46:06.678Z,1032.19
2016-03-13T07:47:06.666Z,1032.16
2016-03-13T07:48:06.652Z,1032.24
2016-03-13T07:49:06.639Z,1032.35
2016-03-13T07:50:06.627Z,1032.29
2016-03-13T07:51:06.614Z,1032.26
2016-03-13T07:52:06.617Z,1032.27
2016-03-13T07:53:06.605Z,1032.28
2016-03-13T07:55:06.594Z,1032.3
2016-03-13T07:56:07.363Z,1032.26
2016-03-13T07:57:07.224Z,1032.28
2016-03-13T07:58:06.555Z,1032.31
2016-03-13T07:59:06.541Z,1032.34
2016-03-13T08:00:06.529Z,1032.26
2016-03-13T08:01:06.532Z,1032.28
2016-03-13T08:02:06.518Z,1032.36
2016-03-13T08:03:06.506Z,1032.32
2016-03-13T08:04:06.509Z,1032.29
2016-03-13T08:05:06.480Z,1032.38
2016-03-13T08:06:06.483Z,1032.41
2016-03-13T08:07:06.470Z,1032.34
2016-03-13T08:08:06.457Z,1032.35
2016-03-13T08:09:06.959Z,1032.32
2016-03-13T08:10:06.446Z,1032.32
2016-03-13T08:11:06.434Z,1032.37
2016-03-13T08:12:06.420Z,1032.31
2016-03-13T08:13:06.408Z,1032.33
2016-03-13T08:14:06.411Z,1032.3
2016-03-13T08:15:06.382Z,1032.31
2016-03-13T08:16:06.384Z,1032.35
2016-03-13T08:17:06.372Z,1032.32
2016-03-13T08:18:06.359Z,1032.33
2016-03-13T08:19:06.345Z,1032.34
2016-03-13T08:20:06.348Z,1032.33
2016-03-13T08:21:06.695Z,1032.37
2016-03-13T08:22:07.025Z,1032.37
2016-03-13T08:23:06.325Z,1032.35
2016-03-13T08:24:06.312Z,1032.37
2016-03-13T08:25:06.315Z,1032.42
2016-03-13T08:26:06.286Z,1032.4
2016-03-13T08:27:06.288Z,1032.41
2016-03-13T08:28:06.277Z,1032.43
2016-03-13T08:29:06.263Z,1032.39
2016-03-13T08:30:06.250Z,1032.46
2016-03-13T08:31:06.238Z,1032.38
2016-03-13T08:32:06.224Z,1032.41
2016-03-13T08:33:06.227Z,1032.45
2016-03-13T08:34:06.214Z,1032.42
2016-03-13T08:35:06.201Z,1032.39
2016-03-13T08:36:06.203Z,1032.48
2016-03-13T08:37:06.177Z,1032.4
2016-03-13T08:38:06.150Z,1032.45
2016-03-13T08:39:06.124Z,1032.43
2016-03-13T08:40:06.096Z,1032.52
2016-03-13T08:41:06.085Z,1032.47
2016-03-13T08:42:06.068Z,1032.52
2016-03-13T08:43:06.050Z,1032.5
2016-03-13T08:44:06.032Z,1032.54
2016-03-13T08:45:06.019Z,1032.53
2016-03-13T08:46:06.001Z,1032.52
2016-03-13T08:47:05.987Z,1032.57
2016-03-13T08:48:05.988Z,1032.54
2016-03-13T08:49:05.972Z,1032.54
2016-03-13T08:50:05.957Z,1032.55
2016-03-13T08:51:05.958Z,1032.59
2016-03-13T08:52:05.945Z,1032.6
2016-03-13T08:53:05.930Z,1032.64
2016-03-13T08:54:05.917Z,1032.68
2016-03-13T08:55:05.918Z,1032.59
2016-03-13T08:56:05.905Z,1032.58
2016-03-13T08:57:05.891Z,1032.69
2016-03-13T08:58:05.878Z,1032.72
2016-03-13T08:59:05.865Z,1032.64
2016-03-13T09:00:05.868Z,1032.63
2016-03-13T09:01:05.854Z,1032.66
2016-03-13T09:02:05.841Z,1032.64
2016-03-13T09:03:05.844Z,1032.69
2016-03-13T09:04:05.831Z,1032.71
2016-03-13T09:05:05.818Z,1032.68
2016-03-13T09:06:05.806Z,1032.73
2016-03-13T09:07:05.797Z,1032.71
2016-03-13T09:08:05.786Z,1032.74
2016-03-13T09:09:05.788Z,1032.75
2016-03-13T09:10:05.776Z,1032.72
2016-03-13T09:11:05.763Z,1032.74
2016-03-13T09:12:05.750Z,1032.77
2016-03-13T09:13:05.753Z,1032.73
2016-03-13T09:14:06.240Z,1032.69
2016-03-13T09:15:05.726Z,1032.71
2016-03-13T09:16:05.714Z,1032.73
2016-03-13T09:17:06.357Z,1032.67
2016-03-13T09:18:05.704Z,1032.74
2016-03-13T09:19:05.690Z,1032.71
2016-03-13T09:20:05.693Z,1032.71
2016-03-13T09:21:07.039Z,1032.7
2016-03-13T09:22:05.668Z,1032.76
2016-03-13T09:23:05.998Z,1032.67
2016-03-13T09:24:05.767Z,1032.76
2016-03-13T09:25:05.644Z,1032.69
2016-03-13T09:26:06.116Z,1032.71
2016-03-13T09:27:06.586Z,1032.7
2016-03-13T09:28:05.621Z,1032.76
2016-03-13T09:29:06.374Z,1032.73
2016-03-13T09:30:05.595Z,1032.7
2016-03-13T09:31:05.583Z,1032.76
2016-03-13T09:32:05.585Z,1032.75
2016-03-13T09:33:05.572Z,1032.79
2016-03-13T09:34:05.560Z,1032.76
2016-03-13T09:35:05.562Z,1032.82
2016-03-13T09:36:05.549Z,1032.89
2016-03-13T09:37:05.536Z,1032.79
2016-03-13T09:38:05.538Z,1032.84
2016-03-13T09:39:05.526Z,1032.79
2016-03-13T09:40:05.513Z,1032.82
2016-03-13T09:41:05.500Z,1032.8
2016-03-13T09:42:05.502Z,1032.84
2016-03-13T09:43:05.490Z,1032.79
2016-03-13T09:44:05.477Z,1032.77
2016-03-13T09:45:05.479Z,1032.77
2016-03-13T09:46:05.467Z,1032.83
2016-03-13T09:47:05.470Z,1032.86
2016-03-13T09:48:05.441Z,1032.83
2016-03-13T09:49:05.443Z,1032.84
2016-03-13T09:50:05.431Z,1032.85
2016-03-13T09:51:05.417Z,1032.82
2016-03-13T09:52:05.420Z,1032.85
2016-03-13T09:53:05.453Z,1032.87
2016-03-13T09:54:05.395Z,1032.88
2016-03-13T09:55:05.397Z,1032.83
2016-03-13T09:56:05.384Z,1032.91
2016-03-13T09:57:05.387Z,1032.85
2016-03-13T09:58:05.374Z,1032.82
2016-03-13T09:59:05.361Z,1032.87
2016-03-13T10:00:05.364Z,1032.88
2016-03-13T10:01:05.350Z,1032.86
2016-03-13T10:02:05.338Z,1032.85
2016-03-13T10:03:05.324Z,1032.82
2016-03-13T10:04:05.327Z,1032.87
2016-03-13T10:05:05.314Z,1032.89
2016-03-13T10:06:05.302Z,1032.92
2016-03-13T10:07:05.289Z,1032.9
2016-03-13T10:08:05.291Z,1032.89
2016-03-13T10:09:05.279Z,1032.86
2016-03-13T10:10:05.265Z,1032.81
2016-03-13T10:11:05.268Z,1032.81
2016-03-13T10:12:05.271Z,1032.84
2016-03-13T10:13:05.243Z,1032.82
2016-03-13T10:14:05.245Z,1032.77
2016-03-13T10:15:05.232Z,1032.79
2016-03-13T10:16:05.219Z,1032.77
2016-03-13T10:17:05.221Z,1032.8
2016-03-13T10:18:05.209Z,1032.79
2016-03-13T10:19:05.211Z,1032.78
2016-03-13T10:20:05.183Z,1032.78
2016-03-13T10:21:05.186Z,1032.82
2016-03-13T10:22:05.172Z,1032.78
2016-03-13T10:23:05.175Z,1032.78
2016-03-13T10:24:05.162Z,1032.81
2016-03-13T10:25:05.165Z,1032.75
2016-03-13T10:26:05.137Z,1032.73
2016-03-13T10:27:05.139Z,1032.79
2016-03-13T10:28:05.126Z,1032.79
2016-03-13T10:29:05.113Z,1032.75
2016-03-13T10:30:05.116Z,1032.77
2016-03-13T10:31:05.103Z,1032.78
2016-03-13T10:32:05.090Z,1032.84
2016-03-13T10:33:05.077Z,1032.8
2016-03-13T10:34:05.080Z,1032.77
2016-03-13T10:35:05.067Z,1032.75
2016-03-13T10:36:05.054Z,1032.79
2016-03-13T10:37:05.057Z,1032.76
2016-03-13T10:38:05.059Z,1032.77
2016-03-13T10:39:05.046Z,1032.82
2016-03-13T10:40:05.033Z,1032.76
2016-03-13T10:41:05.708Z,1032.8
2016-03-13T10:42:05.008Z,1032.83
2016-03-13T10:43:05.010Z,1032.88
2016-03-13T10:44:05.857Z,1032.9
2016-03-13T10:45:05.001Z,1032.81
2016-03-13T10:46:05.409Z,1032.81
2016-03-13T10:47:05.084Z,1032.81
2016-03-13T10:48:04.977Z,1032.7
2016-03-13T10:49:04.964Z,1032.72
2016-03-13T10:50:04.951Z,1032.73
2016-03-13T10:51:04.937Z,1032.73
2016-03-13T10:52:04.940Z,1032.79
2016-03-13T10:53:05.178Z,1032.74
2016-03-13T10:54:04.931Z,1032.74
2016-03-13T10:55:04.918Z,1032.69
2016-03-13T10:56:05.373Z,1032.64
2016-03-13T10:58:04.895Z,1032.65
2016-03-13T10:59:04.882Z,1032.72
2016-03-13T11:00:04.869Z,1032.73
2016-03-13T11:01:05.308Z,1032.67
2016-03-13T11:02:04.858Z,1032.64
2016-03-13T11:03:04.845Z,1032.64
2016-03-13T11:04:04.848Z,1032.64
2016-03-13T11:05:04.835Z,1032.65
2016-03-13T11:06:04.822Z,1032.65
2016-03-13T11:07:04.825Z,1032.61
2016-03-13T11:08:04.812Z,1032.67
2016-03-13T11:09:04.799Z,1032.75
2016-03-13T11:10:04.786Z,1032.77
2016-03-13T11:11:04.788Z,1032.7
2016-03-13T11:12:04.776Z,1032.75
2016-03-13T11:13:04.779Z,1032.78
2016-03-13T11:14:04.765Z,1032.72
2016-03-13T11:15:04.768Z,1032.73
2016-03-13T11:16:04.754Z,1032.72
2016-03-13T11:17:04.742Z,1032.69
2016-03-13T11:18:04.729Z,1032.73
2016-03-13T11:19:04.732Z,1032.72
2016-03-13T11:20:04.720Z,1032.81
2016-03-13T11:21:04.707Z,1032.77
2016-03-13T11:22:04.693Z,1032.72
2016-03-13T11:23:04.696Z,1032.76
2016-03-13T11:24:04.683Z,1032.78
2016-03-13T11:25:04.686Z,1032.84
2016-03-13T11:26:04.673Z,1032.8
2016-03-13T11:27:04.659Z,1032.82
2016-03-13T11:28:04.647Z,1032.77
2016-03-13T11:29:04.650Z,1032.75
2016-03-13T11:30:04.636Z,1032.75
2016-03-13T11:31:04.639Z,1032.76
2016-03-13T11:32:04.627Z,1032.78
2016-03-13T11:33:04.614Z,1032.74
2016-03-13T11:34:04.601Z,1032.75
2016-03-13T11:35:04.603Z,1032.74
2016-03-13T11:36:04.591Z,1032.71
2016-03-13T11:37:04.578Z,1032.74
2016-03-13T11:38:04.581Z,1032.69
2016-03-13T11:39:04.567Z,1032.65
2016-03-13T11:40:04.570Z,1032.67
2016-03-13T11:41:04.558Z,1032.64
2016-03-13T11:42:04.544Z,1032.59
2016-03-13T11:43:04.532Z,1032.65
2016-03-13T11:44:04.535Z,1032.62
2016-03-13T11:45:04.521Z,1032.65
2016-03-13T11:46:04.508Z,1032.61
2016-03-13T11:47:04.495Z,1032.62
2016-03-13T11:48:04.498Z,1032.62
2016-03-13T11:49:04.485Z,1032.62
2016-03-13T11:50:05.190Z,1032.62
2016-03-13T11:51:05.146Z,1032.6
2016-03-13T11:52:04.477Z,1032.59
2016-03-13T11:53:05.637Z,1032.6
2016-03-13T11:54:04.451Z,1032.61
2016-03-13T11:55:04.439Z,1032.64
2016-03-13T11:56:04.442Z,1032.56
2016-03-13T11:57:04.428Z,1032.57
2016-03-13T11:58:04.415Z,1032.67
2016-03-13T11:59:04.418Z,1032.55
2016-03-13T12:00:04.405Z,1032.56
2016-03-13T12:01:04.393Z,1032.57
2016-03-13T12:02:04.380Z,1032.58
2016-03-13T12:03:04.398Z,1032.61
2016-03-13T12:04:04.370Z,1032.6
2016-03-13T12:05:05.357Z,1032.54
2016-03-13T12:06:04.359Z,1032.6
2016-03-13T12:07:04.347Z,1032.61
2016-03-13T12:08:04.333Z,1032.62
2016-03-13T12:10:04.666Z,1032.6
2016-03-13T12:11:04.310Z,1032.67
2016-03-13T12:12:04.297Z,1032.68
2016-03-13T12:13:04.300Z,1032.68
2016-03-13T12:14:04.287Z,1032.59
2016-03-13T12:15:04.274Z,1032.63
2016-03-13T12:16:04.277Z,1032.63
2016-03-13T12:17:04.263Z,1032.63
2016-03-13T12:18:05.001Z,1032.65